Time;durP1;ratioP1;P1;durP2;ratioP2;P2;SDS_P1;SDS_P2;PMS_P1;PMS_P2;Temp;Humidity;BMP_temperature;BMP_pressure;BME280_temperature;BME280_humidity;BME280_pressure;Samples;Min_cycle;Max_cycle;Signal;HPM_P1;HPM_P2
2023/01/27 00:00:25;;;;;;;26.80;13.38;;;4.10;99.90;;;;;;6302663;22;20059;-82
2023/01/27 00:02:51;;;;;;;22.48;12.43;;;3.90;99.90;;;;;;6277260;22;20014;-82
2023/01/27 00:05:17;;;;;;;20.73;11.60;;;4.10;99.90;;;;;;6303890;22;20021;-82
2023/01/27 00:07:49;;;;;;;22.55;12.82;;;3.70;99.90;;;;;;6330551;22;20010;-82
2023/01/27 00:10:17;;;;;;;17.60;11.63;;;4.10;99.90;;;;;;6303943;22;20137;-82
2023/01/27 00:15:30;;;;;;;17.13;10.05;;;3.90;99.90;;;;;;6330348;22;20026;-82
2023/01/27 00:17:56;;;;;;;13.52;9.23;;;3.70;99.90;;;;;;6304186;22;20015;-82
2023/01/27 00:26:05;;;;;;;14.35;7.97;;;3.60;99.90;;;;;;6304110;22;20025;-83
2023/01/27 00:28:32;;;;;;;13.60;7.75;;;3.60;99.90;;;;;;6277194;22;20451;-82
2023/01/27 00:30:58;;;;;;;14.02;7.13;;;3.60;99.90;;;;;;6303299;22;20025;-82
2023/01/27 00:33:26;;;;;;;15.40;8.00;;;4.20;99.90;;;;;;6304213;22;20027;-82
2023/01/27 00:36:02;;;;;;;13.60;7.00;;;4.70;99.90;;;;;;6303061;22;20029;-82
2023/01/27 00:38:29;;;;;;;11.05;7.07;;;3.60;99.90;;;;;;6278535;22;20011;-82
2023/01/27 00:43:40;;;;;;;11.57;6.82;;;4.60;99.90;;;;;;6304961;22;20023;-82
2023/01/27 00:46:06;;;;;;;12.98;6.90;;;3.60;99.90;;;;;;6304683;22;20157;-82
2023/01/27 00:48:32;;;;;;;14.43;7.05;;;4.60;99.90;;;;;;6280573;22;20042;-83
2023/01/27 00:50:58;;;;;;;14.85;6.15;;;4.40;99.90;;;;;;6279417;22;20385;-82
2023/01/27 00:53:23;;;;;;;8.65;5.55;;;4.50;99.90;;;;;;6305582;22;20014;-82
2023/01/27 00:55:49;;;;;;;8.88;5.60;;;4.20;99.90;;;;;;6305623;22;20047;-82
2023/01/27 00:58:15;;;;;;;13.30;4.88;;;4.70;99.90;;;;;;6278638;22;20050;-82
2023/01/27 01:00:40;;;;;;;9.05;4.93;;;4.50;99.90;;;;;;6305202;22;20089;-82
2023/01/27 01:03:06;;;;;;;10.40;4.40;;;3.70;99.90;;;;;;6305065;22;20023;-82
2023/01/27 01:05:32;;;;;;;10.55;5.32;;;3.70;99.90;;;;;;6332186;22;20011;-82
2023/01/27 01:07:58;;;;;;;12.52;4.63;;;3.70;99.90;;;;;;6305859;22;20073;-83
2023/01/27 01:10:24;;;;;;;10.00;5.78;;;4.10;99.90;;;;;;6305174;22;20014;-83
2023/01/27 01:12:49;;;;;;;11.50;5.18;;;4.30;99.90;;;;;;6305433;22;20018;-82
2023/01/27 01:15:15;;;;;;;12.88;5.32;;;3.70;99.90;;;;;;6304997;22;20330;-82
2023/01/27 01:17:41;;;;;;;9.85;4.95;;;3.70;99.90;;;;;;6303530;22;20022;-82
2023/01/27 01:20:07;;;;;;;10.23;5.55;;;3.70;99.90;;;;;;6305459;22;20015;-82
2023/01/27 01:22:33;;;;;;;11.55;4.88;;;3.70;99.90;;;;;;6330750;22;20029;-82
2023/01/27 01:24:58;;;;;;;11.32;5.30;;;4.00;99.90;;;;;;6305114;22;20082;-82
2023/01/27 01:27:24;;;;;;;10.75;4.85;;;4.40;99.90;;;;;;6305452;22;20064;-82
2023/01/27 01:29:50;;;;;;;8.23;3.88;;;3.70;99.90;;;;;;6331944;22;20011;-82
2023/01/27 01:32:15;;;;;;;11.90;4.30;;;4.40;99.90;;;;;;6304000;22;20011;-82
2023/01/27 01:34:42;;;;;;;9.52;4.47;;;4.20;99.90;;;;;;6305213;22;20022;-82
2023/01/27 01:37:08;;;;;;;9.60;4.00;;;4.80;99.90;;;;;;6305473;22;20458;-82
2023/01/27 01:39:33;;;;;;;7.20;3.53;;;4.70;99.90;;;;;;6278541;22;20053;-82
2023/01/27 01:41:59;;;;;;;7.47;3.47;;;4.70;99.90;;;;;;6305006;22;20026;-83
2023/01/27 01:44:28;;;;;;;8.40;2.80;;;4.70;99.90;;;;;;6304845;22;20491;-82
2023/01/27 01:46:54;;;;;;;6.75;2.75;;;3.80;99.90;;;;;;6303607;22;20019;-82
2023/01/27 01:49:26;;;;;;;6.85;2.47;;;3.70;99.90;;;;;;6304709;22;20023;-82
2023/01/27 01:52:01;;;;;;;8.00;2.90;;;3.70;99.90;;;;;;6304994;22;20018;-82
2023/01/27 01:54:30;;;;;;;8.43;2.97;;;4.40;99.90;;;;;;6304441;22;20015;-82
2023/01/27 01:57:09;;;;;;;5.97;2.38;;;4.10;99.90;;;;;;6279416;22;20010;-82
2023/01/27 01:59:41;;;;;;;6.22;2.45;;;3.70;99.90;;;;;;6304036;22;20018;-82
2023/01/27 02:02:11;;;;;;;6.97;2.13;;;3.80;99.90;;;;;;6304167;22;20019;-82
2023/01/27 02:04:45;;;;;;;12.85;2.78;;;4.70;99.90;;;;;;6305099;22;20023;-82
2023/01/27 02:07:31;;;;;;;5.90;2.42;;;4.60;99.90;;;;;;6303589;22;20085;-82
2023/01/27 02:09:59;;;;;;;4.15;1.85;;;3.70;99.90;;;;;;6304731;22;20018;-82
2023/01/27 02:12:24;;;;;;;8.52;2.25;;;4.60;99.90;;;;;;6305367;22;20023;-82
2023/01/27 02:14:50;;;;;;;6.10;1.83;;;4.60;99.90;;;;;;6277316;22;20071;-82
2023/01/27 02:17:16;;;;;;;7.57;1.70;;;3.70;99.90;;;;;;6304385;22;20014;-82
2023/01/27 02:20:06;;;;;;;7.75;1.80;;;4.80;99.90;;;;;;6305151;22;20478;-82
2023/01/27 02:22:42;;;;;;;3.75;1.65;;;3.70;99.90;;;;;;6331217;22;20086;-82
2023/01/27 02:25:24;;;;;;;7.00;2.10;;;4.50;99.90;;;;;;6304207;22;20019;-82
2023/01/27 02:27:49;;;;;;;7.15;1.50;;;4.10;99.90;;;;;;6304353;22;20019;-82
2023/01/27 02:30:15;;;;;;;6.63;1.70;;;4.80;99.90;;;;;;6304135;22;20011;-82
2023/01/27 02:32:41;;;;;;;5.63;1.42;;;3.70;99.90;;;;;;6332515;22;20382;-82
2023/01/27 02:35:12;;;;;;;5.43;1.80;;;4.70;99.90;;;;;;6303283;22;20046;-82
2023/01/27 02:37:39;;;;;;;3.83;1.58;;;3.60;99.90;;;;;;6304741;22;20468;-82
2023/01/27 02:40:05;;;;;;;7.78;1.88;;;4.20;99.90;;;;;;6330015;22;20075;-82
2023/01/27 02:42:31;;;;;;;3.33;1.17;;;3.70;99.90;;;;;;6329832;22;20015;-82
2023/01/27 02:44:56;;;;;;;5.95;1.65;;;3.70;99.90;;;;;;6304412;22;20167;-82
2023/01/27 02:47:22;;;;;;;8.73;1.42;;;3.90;99.90;;;;;;6304448;22;20021;-82
2023/01/27 02:49:48;;;;;;;9.70;1.58;;;3.70;99.90;;;;;;6303858;22;20342;-82
2023/01/27 02:52:14;;;;;;;7.28;1.60;;;4.20;99.90;;;;;;6304027;22;20089;-82
2023/01/27 02:54:40;;;;;;;3.70;1.20;;;3.80;99.90;;;;;;6304587;22;20023;-82
2023/01/27 02:57:06;;;;;;;7.75;1.25;;;3.70;99.90;;;;;;6303258;22;20072;-82
2023/01/27 02:59:31;;;;;;;6.07;1.60;;;4.00;99.90;;;;;;6278405;22;20094;-82
2023/01/27 03:01:57;;;;;;;7.95;1.60;;;4.80;99.90;;;;;;6332473;22;20039;-82
2023/01/27 03:04:23;;;;;;;6.30;1.30;;;3.60;99.90;;;;;;6303030;22;20509;-82
2023/01/27 03:06:48;;;;;;;3.15;1.10;;;3.70;99.90;;;;;;6304744;22;20461;-82
2023/01/27 03:09:14;;;;;;;3.45;1.10;;;3.60;99.90;;;;;;6278722;22;20026;-82
2023/01/27 03:19:52;;;;;;;6.78;1.50;;;4.00;99.90;;;;;;6304762;22;20064;-82
2023/01/27 03:22:19;;;;;;;7.32;1.40;;;4.40;99.90;;;;;;6278052;22;20376;-82
2023/01/27 03:24:44;;;;;;;4.25;1.20;;;3.60;99.90;;;;;;6303511;22;20023;-82
2023/01/27 03:27:10;;;;;;;6.32;1.20;;;3.50;99.90;;;;;;6304637;22;20335;-82
2023/01/27 03:29:54;;;;;;;6.10;1.20;;;4.10;99.90;;;;;;6303612;22;20038;-82
2023/01/27 03:32:21;;;;;;;3.65;1.00;;;3.50;99.90;;;;;;6302395;22;20352;-82
2023/01/27 03:34:47;;;;;;;5.15;1.33;;;3.50;99.90;;;;;;6304082;22;20428;-83
2023/01/27 03:48:11;;;;;;;5.93;1.20;;;3.80;99.90;;;;;;6303704;22;20071;-82
2023/01/27 03:50:40;;;;;;;6.15;1.55;;;4.00;99.90;;;;;;6332399;22;20014;-82
2023/01/27 03:53:06;;;;;;;9.00;1.42;;;4.10;99.90;;;;;;6331305;22;20393;-82
2023/01/27 03:55:33;;;;;;;7.10;1.13;;;3.60;99.90;;;;;;6278195;22;20040;-82
2023/01/27 03:58:18;;;;;;;9.18;1.70;;;4.10;99.90;;;;;;6304040;22;20015;-82
2023/01/27 04:00:46;;;;;;;6.88;1.23;;;4.30;99.90;;;;;;6330360;22;20446;-82
2023/01/27 04:08:42;;;;;;;4.78;0.75;;;4.00;99.90;;;;;;6302717;22;20031;-82
2023/01/27 04:13:52;;;;;;;6.28;1.13;;;4.10;99.90;;;;;;6303355;22;20018;-82
2023/01/27 04:16:18;;;;;;;6.68;1.70;;;4.10;99.90;;;;;;6331045;22;20017;-82
2023/01/27 04:18:45;;;;;;;5.32;1.00;;;3.30;99.90;;;;;;6303944;22;20038;-82
2023/01/27 04:21:12;;;;;;;5.80;1.08;;;4.30;99.90;;;;;;6303045;22;20046;-82
2023/01/27 04:23:38;;;;;;;6.55;1.30;;;4.10;99.90;;;;;;6303224;22;20023;-82
2023/01/27 04:26:03;;;;;;;5.80;1.20;;;4.10;99.90;;;;;;6331876;22;20158;-82
2023/01/27 04:28:29;;;;;;;11.48;1.58;;;3.90;99.90;;;;;;6276928;22;20098;-82
2023/01/27 04:30:57;;;;;;;8.93;1.52;;;4.40;99.90;;;;;;6303175;22;20301;-82
2023/01/27 04:33:22;;;;;;;5.15;1.40;;;4.10;99.90;;;;;;6303952;22;20019;-82
2023/01/27 04:35:49;;;;;;;5.78;1.63;;;3.20;99.90;;;;;;6277067;22;20428;-82
2023/01/27 04:38:15;;;;;;;7.07;1.98;;;3.80;99.90;;;;;;6303688;22;20098;-82
2023/01/27 04:40:42;;;;;;;7.30;2.25;;;4.00;99.90;;;;;;6303162;22;20388;-82
2023/01/27 04:43:07;;;;;;;9.13;1.95;;;4.30;99.90;;;;;;6303013;22;20043;-82
2023/01/27 04:45:33;;;;;;;5.85;1.70;;;4.40;99.90;;;;;;6304253;22;20015;-82
2023/01/27 04:47:58;;;;;;;5.28;1.63;;;4.50;99.90;;;;;;6303591;22;20022;-82
2023/01/27 04:50:24;;;;;;;7.25;1.67;;;3.80;99.90;;;;;;6330879;22;20170;-82
2023/01/27 04:52:50;;;;;;;7.95;1.83;;;3.40;99.90;;;;;;6304011;22;20023;-82
2023/01/27 04:55:15;;;;;;;8.90;1.70;;;3.20;99.90;;;;;;6304046;22;20085;-82
2023/01/27 04:57:41;;;;;;;6.65;2.08;;;4.10;99.90;;;;;;6303548;22;20050;-82
2023/01/27 05:00:07;;;;;;;7.18;2.10;;;4.00;99.90;;;;;;6277336;22;20490;-82
2023/01/27 05:02:33;;;;;;;4.20;2.13;;;3.20;99.90;;;;;;6303319;22;20015;-81
2023/01/27 05:05:03;;;;;;;5.47;2.40;;;4.30;99.90;;;;;;6303441;22;20015;-82
2023/01/27 05:07:29;;;;;;;6.75;2.25;;;3.30;99.90;;;;;;6303876;22;20011;-82
2023/01/27 05:09:55;;;;;;;5.18;1.73;;;4.30;99.90;;;;;;6302969;22;20026;-82
2023/01/27 05:12:20;;;;;;;6.25;2.50;;;3.70;99.90;;;;;;6304387;22;20079;-82
2023/01/27 05:14:46;;;;;;;7.90;2.30;;;4.30;99.90;;;;;;6303427;22;20019;-82
2023/01/27 05:17:12;;;;;;;6.40;2.20;;;4.30;99.90;;;;;;6330275;22;20011;-82
2023/01/27 05:19:37;;;;;;;6.10;1.60;;;4.50;99.90;;;;;;6332104;22;20015;-82
2023/01/27 05:22:03;;;;;;;7.25;1.67;;;4.40;99.90;;;;;;6304083;22;20011;-81
2023/01/27 05:24:28;;;;;;;6.68;1.50;;;4.30;99.90;;;;;;6303116;22;20023;-81
2023/01/27 05:26:54;;;;;;;4.18;1.63;;;4.30;99.90;;;;;;6306376;22;20027;-82
2023/01/27 05:29:20;;;;;;;9.73;2.00;;;3.80;99.90;;;;;;6304642;22;20023;-82
2023/01/27 05:31:45;;;;;;;10.00;1.90;;;3.30;99.90;;;;;;6304309;22;20011;-82
2023/01/27 05:34:11;;;;;;;6.63;2.15;;;4.10;99.90;;;;;;6333938;22;20034;-82
2023/01/27 05:36:37;;;;;;;5.32;1.83;;;3.20;99.90;;;;;;6305099;22;20461;-82
2023/01/27 05:39:03;;;;;;;4.82;1.80;;;3.20;99.90;;;;;;6304610;22;20099;-82
2023/01/27 05:41:30;;;;;;;8.55;1.80;;;3.20;99.90;;;;;;6304639;22;20054;-82
2023/01/27 05:43:56;;;;;;;6.88;1.77;;;4.30;99.90;;;;;;6333727;22;20409;-82
2023/01/27 05:46:24;;;;;;;4.65;1.65;;;3.70;99.90;;;;;;6303458;22;20061;-81
2023/01/27 05:48:53;;;;;;;12.50;1.90;;;4.10;99.90;;;;;;6305233;22;20501;-82
2023/01/27 05:51:22;;;;;;;6.15;1.60;;;3.20;99.90;;;;;;6305263;22;20015;-82
2023/01/27 05:53:48;;;;;;;5.82;1.95;;;3.20;99.90;;;;;;6332269;22;20011;-81
2023/01/27 05:56:17;;;;;;;5.90;1.60;;;4.00;99.90;;;;;;6304932;22;20432;-82
2023/01/27 05:58:43;;;;;;;4.40;1.40;;;3.70;99.90;;;;;;6305314;22;20019;-82
2023/01/27 06:01:13;;;;;;;2.55;1.00;;;3.30;99.90;;;;;;6302719;22;20018;-82
2023/01/27 06:03:39;;;;;;;5.45;1.00;;;3.20;99.90;;;;;;6279201;22;20510;-82
2023/01/27 06:06:06;;;;;;;5.57;1.40;;;3.70;99.90;;;;;;6304180;22;20053;-82
2023/01/27 06:08:33;;;;;;;6.88;1.35;;;3.10;99.90;;;;;;6304839;22;20080;-81
2023/01/27 06:10:59;;;;;;;4.93;1.40;;;3.90;99.90;;;;;;6279302;22;20009;-82
2023/01/27 06:13:25;;;;;;;6.47;1.38;;;3.50;99.90;;;;;;6303912;22;20027;-82
2023/01/27 06:15:51;;;;;;;7.78;2.15;;;3.40;99.90;;;;;;6304436;22;20027;-82
2023/01/27 06:18:18;;;;;;;4.32;1.17;;;3.40;99.90;;;;;;6304579;22;20021;-82
2023/01/27 06:20:44;;;;;;;6.95;1.30;;;2.90;99.90;;;;;;6278080;22;20465;-82
2023/01/27 06:23:12;;;;;;;3.42;0.90;;;3.40;99.90;;;;;;6304897;22;20050;-82
2023/01/27 06:25:39;;;;;;;5.22;1.35;;;3.00;99.90;;;;;;6304224;22;20015;-81
2023/01/27 06:28:07;;;;;;;3.92;0.90;;;3.50;99.90;;;;;;6304762;22;20049;-82
2023/01/27 06:30:35;;;;;;;5.32;1.63;;;2.90;99.90;;;;;;6303770;22;20411;-82
2023/01/27 06:33:01;;;;;;;4.78;1.17;;;2.80;99.90;;;;;;6301822;22;20076;-81
2023/01/27 06:35:27;;;;;;;6.03;1.25;;;3.50;99.90;;;;;;6301529;22;20014;-83
2023/01/27 06:37:53;;;;;;;5.30;1.60;;;2.80;99.90;;;;;;6304319;22;20018;-80
2023/01/27 06:40:19;;;;;;;7.18;1.20;;;3.80;99.90;;;;;;6304444;22;20045;-82
2023/01/27 06:42:45;;;;;;;4.55;1.00;;;2.90;99.90;;;;;;6331142;22;20019;-82
2023/01/27 06:45:11;;;;;;;3.85;1.10;;;3.70;99.90;;;;;;6304142;22;20022;-82
2023/01/27 06:47:58;;;;;;;4.10;1.08;;;2.90;99.90;;;;;;6331258;22;20034;-82
2023/01/27 06:50:26;;;;;;;7.05;1.30;;;3.10;99.90;;;;;;6276859;22;20100;-84
2023/01/27 06:52:52;;;;;;;4.97;1.20;;;2.90;99.90;;;;;;6330835;22;20011;-81
2023/01/27 06:55:18;;;;;;;3.15;1.08;;;4.10;99.90;;;;;;6303085;22;20441;-82
2023/01/27 06:57:47;;;;;;;4.90;0.95;;;3.90;99.90;;;;;;6304443;22;20046;-83
2023/01/27 07:00:14;;;;;;;4.03;0.93;;;3.00;99.90;;;;;;6303333;22;20042;-82
2023/01/27 07:02:44;;;;;;;4.40;1.05;;;3.00;99.90;;;;;;6302694;22;20018;-83
2023/01/27 07:05:10;;;;;;;9.05;1.40;;;3.00;99.90;;;;;;6329799;22;20019;-83
2023/01/27 07:07:36;;;;;;;7.03;1.10;;;3.70;99.90;;;;;;6298620;22;20052;-83
2023/01/27 07:10:08;;;;;;;6.90;1.20;;;3.40;99.90;;;;;;6298451;22;20372;-83
2023/01/27 07:12:36;;;;;;;5.90;1.30;;;3.00;99.90;;;;;;6273464;22;20030;-83
2023/01/27 07:15:04;;;;;;;4.47;1.00;;;3.00;99.90;;;;;;6298403;22;20410;-82
2023/01/27 07:17:30;;;;;;;5.63;1.10;;;3.00;99.90;;;;;;6297387;22;20029;-82
2023/01/27 07:19:58;;;;;;;6.82;1.20;;;3.80;99.90;;;;;;6301008;22;20061;-83
2023/01/27 07:22:24;;;;;;;7.60;1.40;;;3.00;99.90;;;;;;6298447;22;20041;-82
2023/01/27 07:24:49;;;;;;;6.90;1.30;;;3.00;99.90;;;;;;6297885;22;20514;-83
2023/01/27 07:27:15;;;;;;;6.43;1.30;;;3.00;99.90;;;;;;6298033;22;20092;-86
2023/01/27 07:29:41;;;;;;;6.65;1.30;;;3.10;99.90;;;;;;6298399;22;20015;-87
2023/01/27 07:32:07;;;;;;;6.28;1.20;;;3.90;99.90;;;;;;6297418;22;20064;-86
2023/01/27 07:34:32;;;;;;;14.43;1.70;;;4.10;99.90;;;;;;6299211;22;20015;-87
2023/01/27 07:36:58;;;;;;;8.38;2.25;;;3.00;99.90;;;;;;6299527;22;20019;-87
2023/01/27 07:39:25;;;;;;;8.77;2.00;;;3.00;99.90;;;;;;6297754;22;20060;-87
2023/01/27 07:41:51;;;;;;;8.07;1.70;;;3.90;99.90;;;;;;6271908;22;20069;-86
2023/01/27 07:44:17;;;;;;;9.00;1.95;;;3.40;99.90;;;;;;6298492;22;20419;-87
2023/01/27 07:46:43;;;;;;;6.90;2.10;;;3.40;99.90;;;;;;6297101;22;20041;-87
2023/01/27 07:49:11;;;;;;;6.63;2.33;;;3.00;99.90;;;;;;6298878;22;20335;-87
2023/01/27 07:51:37;;;;;;;11.98;2.30;;;4.20;99.90;;;;;;6271613;22;20019;-86
2023/01/27 07:54:04;;;;;;;11.18;2.22;;;3.20;99.90;;;;;;6298531;22;20110;-86
2023/01/27 07:56:31;;;;;;;7.68;2.00;;;3.70;99.90;;;;;;6298950;22;20011;-86
2023/01/27 07:59:03;;;;;;;9.13;2.10;;;2.90;99.90;;;;;;6298800;22;20015;-88
2023/01/27 08:01:29;;;;;;;10.23;2.03;;;3.40;99.90;;;;;;6297309;22;20007;-86
2023/01/27 08:03:55;;;;;;;9.52;1.60;;;3.70;99.90;;;;;;6299101;22;20027;-87
2023/01/27 08:06:52;;;;;;;;;;;;;;;;;;;;;
2023/01/27 08:09:18;;;;;;;6.75;2.00;;;4.10;99.90;;;;;;6297816;22;20019;-86
2023/01/27 08:11:44;;;;;;;7.75;1.80;;;3.20;99.90;;;;;;6298260;22;20049;-87
2023/01/27 08:14:09;;;;;;;7.75;2.10;;;2.40;99.90;;;;;;6297087;22;20077;-87
2023/01/27 08:16:35;;;;;;;13.75;2.20;;;3.10;99.90;;;;;;6297757;22;20019;-87
2023/01/27 08:19:01;;;;;;;7.60;1.98;;;3.10;99.90;;;;;;6272976;22;20015;-86
2023/01/27 08:21:31;;;;;;;10.77;2.20;;;3.20;99.90;;;;;;6297493;22;20016;-87
2023/01/27 08:24:02;;;;;;;12.15;2.40;;;3.20;99.90;;;;;;6272782;22;20092;-84
2023/01/27 08:26:28;;;;;;;10.30;1.75;;;4.20;99.90;;;;;;6298883;22;20054;-84
2023/01/27 08:28:54;;;;;;;9.52;2.28;;;3.60;99.90;;;;;;6297954;22;20015;-86
2023/01/27 08:31:20;;;;;;;12.50;2.35;;;3.20;99.90;;;;;;6271330;22;20444;-86
2023/01/27 08:33:50;;;;;;;9.25;2.22;;;4.50;99.90;;;;;;6298100;22;20030;-86
2023/01/27 08:36:17;;;;;;;6.22;2.40;;;3.40;99.90;;;;;;6297880;22;20050;-86
2023/01/27 08:38:44;;;;;;;13.63;3.08;;;4.10;99.90;;;;;;6298678;22;20016;-86
2023/01/27 08:41:12;;;;;;;7.60;2.15;;;3.50;99.90;;;;;;6297376;22;20039;-86
2023/01/27 08:43:38;;;;;;;10.73;2.50;;;3.50;99.90;;;;;;6298265;22;20122;-86
2023/01/27 08:46:05;;;;;;;7.72;2.47;;;4.50;99.90;;;;;;6297248;22;20373;-86
2023/01/27 08:48:32;;;;;;;11.68;2.70;;;4.10;99.90;;;;;;6297672;22;20015;-86
2023/01/27 08:50:59;;;;;;;7.22;1.70;;;3.60;99.90;;;;;;6298082;22;20347;-85
2023/01/27 08:53:25;;;;;;;9.45;2.50;;;3.60;99.90;;;;;;6298416;22;20051;-86
2023/01/27 08:55:53;;;;;;;11.30;2.45;;;3.50;99.90;;;;;;6297944;22;20015;-86
2023/01/27 08:58:19;;;;;;;9.50;2.22;;;3.50;99.90;;;;;;6298351;22;20023;-84
2023/01/27 09:00:45;;;;;;;12.02;2.08;;;4.60;99.90;;;;;;6299777;22;20046;-84
2023/01/27 09:03:11;;;;;;;9.35;2.65;;;4.80;99.90;;;;;;6298302;22;20015;-86
2023/01/27 09:05:37;;;;;;;7.43;2.03;;;4.40;99.90;;;;;;6299326;22;20054;-84
2023/01/27 09:08:03;;;;;;;7.80;2.08;;;3.70;99.90;;;;;;6305536;22;20129;-84
2023/01/27 09:10:30;;;;;;;5.15;2.38;;;3.70;99.90;;;;;;6304759;22;20022;-86
2023/01/27 09:12:56;;;;;;;9.55;2.22;;;4.70;99.90;;;;;;6305891;22;20354;-85
2023/01/27 09:15:22;;;;;;;7.53;2.13;;;3.80;99.90;;;;;;6304354;22;20015;-85
2023/01/27 09:17:48;;;;;;;9.57;2.30;;;4.40;99.90;;;;;;6304149;22;20094;-84
2023/01/27 09:20:13;;;;;;;9.73;2.00;;;4.20;99.90;;;;;;6279923;22;20014;-85
2023/01/27 09:22:40;;;;;;;6.60;2.13;;;3.80;99.90;;;;;;6304834;22;20011;-85
2023/01/27 09:25:08;;;;;;;7.93;1.98;;;3.90;99.90;;;;;;6278906;22;20019;-85
2023/01/27 09:27:33;;;;;;;9.18;1.85;;;3.90;99.90;;;;;;6279251;22;20011;-84
2023/01/27 09:29:59;;;;;;;6.78;2.00;;;3.90;99.90;;;;;;6278431;22;20017;-85
2023/01/27 09:32:25;;;;;;;6.40;2.17;;;5.00;99.90;;;;;;6304471;22;20027;-84
2023/01/27 09:34:51;;;;;;;7.63;1.80;;;4.60;99.90;;;;;;6305271;22;20026;-84
2023/01/27 09:37:17;;;;;;;7.00;1.88;;;3.90;99.90;;;;;;6304408;22;20079;-85
2023/01/27 09:39:48;;;;;;;5.07;1.95;;;3.90;99.90;;;;;;6304563;22;20508;-85
2023/01/27 09:42:25;;;;;;;7.88;1.80;;;5.20;99.90;;;;;;6305536;22;20015;-84
2023/01/27 09:45:09;;;;;;;4.60;1.55;;;4.00;99.90;;;;;;6304219;22;20030;-84
2023/01/27 09:47:34;;;;;;;6.10;1.52;;;4.00;99.90;;;;;;6304528;22;20025;-85
2023/01/27 09:50:13;;;;;;;10.35;1.95;;;4.70;99.90;;;;;;6278849;22;20462;-84
2023/01/27 09:52:56;;;;;;;5.20;1.75;;;4.00;99.90;;;;;;6303990;22;20015;-85
2023/01/27 09:55:23;;;;;;;6.28;1.38;;;4.00;99.90;;;;;;6305299;22;20081;-85
2023/01/27 09:58:18;;;;;;;6.53;1.60;;;4.60;99.90;;;;;;6279315;22;20362;-86
2023/01/27 10:00:52;;;;;;;5.80;1.30;;;4.00;99.90;;;;;;6278759;22;20018;-85
2023/01/27 10:03:44;;;;;;;4.80;1.60;;;4.00;99.90;;;;;;6278469;22;20465;-84
2023/01/27 10:06:23;;;;;;;4.32;1.42;;;3.90;99.90;;;;;;6303492;22;20022;-85
2023/01/27 10:09:00;;;;;;;7.00;1.60;;;4.00;99.90;;;;;;6305005;22;20023;-85
2023/01/27 10:11:52;;;;;;;3.03;1.52;;;4.00;99.90;;;;;;6305149;22;20376;-84
2023/01/27 10:14:23;;;;;;;7.80;2.10;;;4.70;99.90;;;;;;6303184;22;20388;-84
2023/01/27 10:17:04;;;;;;;8.23;2.05;;;3.90;99.90;;;;;;6278640;22;20046;-85
2023/01/27 10:19:43;;;;;;;5.43;1.85;;;4.00;99.90;;;;;;6278043;22;20093;-85
2023/01/27 10:22:26;;;;;;;6.90;1.83;;;4.00;99.90;;;;;;6304601;22;20133;-85
2023/01/27 10:25:00;;;;;;;7.10;1.50;;;4.00;99.90;;;;;;6279429;22;20097;-87
2023/01/27 10:27:31;;;;;;;6.95;1.40;;;4.20;99.90;;;;;;6278196;22;20342;-87
2023/01/27 10:30:05;;;;;;;7.72;1.25;;;5.10;99.90;;;;;;6278950;22;20015;-87
2023/01/27 10:32:44;;;;;;;2.28;0.90;;;4.00;99.90;;;;;;6278799;22;20347;-86
2023/01/27 10:35:19;;;;;;;4.38;1.10;;;4.80;99.90;;;;;;6277786;22;20072;-84
2023/01/27 10:37:51;;;;;;;3.03;1.10;;;4.00;99.90;;;;;;6304026;22;20435;-84
2023/01/27 10:40:35;;;;;;;3.40;1.40;;;4.00;99.90;;;;;;6303551;22;20058;-85
2023/01/27 10:43:11;;;;;;;4.65;1.88;;;4.70;99.90;;;;;;6279300;22;20327;-85
2023/01/27 10:45:50;;;;;;;4.47;1.77;;;4.10;99.90;;;;;;6303914;22;20447;-84
2023/01/27 10:48:21;;;;;;;2.55;1.65;;;4.00;99.90;;;;;;6277859;22;20058;-85
2023/01/27 10:51:00;;;;;;;3.05;1.70;;;5.10;99.90;;;;;;6304132;22;20324;-85
2023/01/27 10:53:39;;;;;;;4.25;1.80;;;4.00;99.90;;;;;;6305387;22;20018;-84
2023/01/27 10:56:14;;;;;;;2.67;1.90;;;5.20;99.90;;;;;;6303973;22;20072;-85
2023/01/27 10:58:53;;;;;;;4.25;2.10;;;4.30;99.90;;;;;;6278879;22;20017;-85
2023/01/27 11:01:29;;;;;;;5.55;2.67;;;4.70;99.90;;;;;;6302184;22;20019;-85
2023/01/27 11:04:11;;;;;;;4.47;2.75;;;3.90;99.90;;;;;;6304171;22;20093;-85
2023/01/27 11:06:39;;;;;;;6.20;2.50;;;3.90;99.90;;;;;;6303524;22;20026;-85
2023/01/27 11:09:23;;;;;;;3.80;2.35;;;4.70;99.90;;;;;;6303278;22;20033;-85
2023/01/27 11:11:51;;;;;;;4.43;2.50;;;3.80;99.90;;;;;;6304208;22;20023;-84
2023/01/27 11:14:25;;;;;;;4.90;2.70;;;3.80;99.90;;;;;;6303306;22;20014;-85
2023/01/27 11:16:59;;;;;;;4.97;2.85;;;3.80;99.90;;;;;;6303351;22;20019;-85
2023/01/27 11:19:57;;;;;;;6.95;4.25;;;3.80;99.90;;;;;;6304941;22;20050;-85
2023/01/27 11:22:32;;;;;;;13.45;5.30;;;3.80;99.90;;;;;;6277199;22;20054;-84
2023/01/27 11:25:03;;;;;;;8.35;4.05;;;4.80;99.90;;;;;;6304421;22;20018;-85
2023/01/27 11:27:54;;;;;;;7.65;3.45;;;3.80;99.90;;;;;;6304336;22;20030;-85
2023/01/27 11:30:30;;;;;;;6.10;3.95;;;3.70;99.90;;;;;;6302624;22;20023;-85
2023/01/27 11:33:09;;;;;;;5.35;3.28;;;4.70;99.90;;;;;;6304102;22;20046;-85
2023/01/27 11:35:36;;;;;;;7.35;3.22;;;4.50;99.90;;;;;;6304116;22;20030;-85
2023/01/27 11:38:01;;;;;;;9.25;3.45;;;3.70;99.90;;;;;;6303544;22;20010;-85
2023/01/27 11:40:27;;;;;;;4.53;3.08;;;4.10;99.90;;;;;;6278073;22;20022;-85
2023/01/27 11:42:56;;;;;;;5.60;3.28;;;4.80;99.90;;;;;;6304334;22;20053;-85
2023/01/27 11:45:23;;;;;;;5.35;3.35;;;4.30;99.90;;;;;;6302207;22;20109;-85
2023/01/27 11:47:54;;;;;;;8.63;3.70;;;4.60;99.90;;;;;;6303627;22;20422;-85
2023/01/27 11:50:23;;;;;;;4.90;3.17;;;3.90;99.90;;;;;;6277122;22;20433;-85
2023/01/27 11:53:23;;;;;;;7.03;3.28;;;3.90;99.90;;;;;;6304223;22;20321;-86
2023/01/27 11:56:25;;;;;;;4.20;3.05;;;3.80;99.90;;;;;;6279878;22;20057;-85
2023/01/27 11:59:12;;;;;;;5.95;3.50;;;3.60;99.90;;;;;;6303602;22;20355;-85
2023/01/27 12:02:01;;;;;;;5.43;2.92;;;3.90;99.90;;;;;;6307974;22;20026;-85
2023/01/27 12:04:50;;;;;;;5.72;3.28;;;3.80;99.90;;;;;;6304351;22;20023;-86
2023/01/27 12:07:37;;;;;;;6.05;3.20;;;3.80;99.90;;;;;;6304096;22;20026;-85
2023/01/27 12:10:27;;;;;;;8.02;3.65;;;4.80;99.90;;;;;;6303927;22;20025;-83
2023/01/27 12:12:55;;;;;;;4.65;3.08;;;3.70;99.90;;;;;;6278102;22;20025;-86
2023/01/27 12:15:32;;;;;;;5.05;2.75;;;3.70;99.90;;;;;;6303850;22;20101;-87
2023/01/27 12:18:02;;;;;;;6.65;3.58;;;3.70;99.90;;;;;;6278938;22;20015;-86
2023/01/27 12:20:30;;;;;;;5.03;3.38;;;3.80;99.90;;;;;;6277849;22;20023;-86
2023/01/27 12:23:01;;;;;;;6.22;3.50;;;3.70;99.90;;;;;;6278183;22;20077;-86
2023/01/27 12:25:41;;;;;;;8.00;3.30;;;4.10;99.90;;;;;;6303243;22;20054;-87
2023/01/27 12:28:31;;;;;;;8.52;3.42;;;3.10;99.90;;;;;;6279618;22;20019;-86
2023/01/27 12:31:07;;;;;;;6.22;3.35;;;3.60;99.90;;;;;;6277389;22;20054;-86
2023/01/27 12:33:37;;;;;;;5.47;3.22;;;3.70;99.90;;;;;;6276576;22;20022;-87
2023/01/27 12:36:23;;;;;;;4.72;3.40;;;3.60;99.90;;;;;;6303816;22;20089;-87
2023/01/27 12:38:59;;;;;;;4.47;3.13;;;3.60;99.90;;;;;;6304771;22;20022;-88
2023/01/27 12:41:29;;;;;;;5.80;3.45;;;3.60;99.90;;;;;;6279540;22;20019;-88
2023/01/27 12:44:42;;;;;;;4.15;3.20;;;3.60;99.90;;;;;;6279349;22;20596;-89
2023/01/27 12:47:22;;;;;;;3.83;3.00;;;3.80;99.90;;;;;;6303653;22;20030;-89
2023/01/27 12:49:48;;;;;;;4.82;3.10;;;3.50;99.90;;;;;;6280387;22;20088;-89
2023/01/27 12:52:22;;;;;;;3.25;2.40;;;3.70;99.90;;;;;;6280723;22;20449;-89
2023/01/27 12:55:09;;;;;;;5.93;2.53;;;4.60;99.90;;;;;;6278930;22;20015;-89
2023/01/27 12:58:08;;;;;;;6.82;2.25;;;3.70;99.90;;;;;;6306955;22;20026;-89
2023/01/27 13:04:52;;;;;;;3.40;2.30;;;3.70;99.90;;;;;;6304265;22;20026;-89
2023/01/27 13:10:58;;;;;;;3.47;2.50;;;3.60;99.90;;;;;;6300393;22;20097;-89
2023/01/27 13:13:30;;;;;;;4.82;2.75;;;3.60;99.90;;;;;;6300296;22;20031;-90
2023/01/27 13:17:14;;;;;;;;;;;;;;;;;;;;;
2023/01/27 13:20:34;;;;;;;;;;;;;;;;;;;;;
2023/01/27 13:24:22;;;;;;;;;;;;;;;;;;;;;
2023/01/27 13:28:37;;;;;;;6.75;3.00;;;3.60;99.90;;;;;;6300527;22;20095;-89
2023/01/27 13:31:42;;;;;;;4.55;2.47;;;3.70;99.90;;;;;;6202365;23;20027;-89
2023/01/27 13:34:33;;;;;;;4.53;2.50;;;3.80;99.90;;;;;;6156314;23;20016;-88
2023/01/27 13:37:29;;;;;;;5.22;2.60;;;3.80;99.90;;;;;;6274993;22;20019;-88
2023/01/27 13:41:03;;;;;;;3.13;2.28;;;3.90;99.90;;;;;;6303098;22;20017;-89
2023/01/27 13:44:41;;;;;;;;;;;;;;;;;;;;;
2023/01/27 13:51:52;;;;;;;2.55;1.30;;;3.10;99.90;;;;;;6252252;22;20536;-89
2023/01/27 13:55:45;;;;;;;1.90;1.27;;;3.80;99.90;;;;;;6257881;22;20023;-91
2023/01/27 13:58:49;;;;;;;3.75;1.30;;;3.80;99.90;;;;;;6268008;22;20490;-90
2023/01/27 14:01:44;;;;;;;1.80;1.27;;;3.80;99.90;;;;;;6279630;22;20022;-90
2023/01/27 14:08:17;;;;;;;;;;;;;;;;;;;;;
2023/01/27 14:12:01;;;;;;;;;;;;;;;;;;;;;
2023/01/27 14:30:23;;;;;;;;;;;;;;;;;;;;;
2023/01/27 14:33:13;;;;;;;2.88;1.20;;;3.50;99.90;;;;;;6223957;23;20100;-89
2023/01/27 14:36:19;;;;;;;2.08;1.10;;;3.60;99.90;;;;;;6215619;23;20016;-89
2023/01/27 14:39:49;;;;;;;1.77;1.25;;;3.60;99.90;;;;;;6213181;23;20027;-90
2023/01/27 14:42:59;;;;;;;3.67;1.30;;;3.60;99.90;;;;;;6218827;23;20020;-89
2023/01/27 14:45:57;;;;;;;1.70;1.20;;;3.60;99.90;;;;;;6214106;23;20055;-90